Steveston Lifeboat — VOQQ — position and weather

sailwx.info

Track history (hours):
 
Tides and Currents Weather Stations Pressure Air Temp Water Temp Dewpoint Dewpoint Depression Visibility Wind Speed Wind Dir Waves Ship Positions

Steveston Lifeboat

Last reported at 2014-Jul-27 06:34 UTC. Time now 2014-Jul-30 09:04 UTC.
Position N 49°07' W 123°12'.

Length 15 m.

Type: SAR. MMSI: 316012135.

Date/timePositionNaut miles runAvg speedWind from/ knotsBaromVisibWave heightAir tempDewpointWater temp
2014-Jul-27 06:34N 49°07' W 123°12'2 1.6
2014-Jul-27 05:33N 49°07' W 123°10'1 0.8
2014-Jul-27 04:33N 49°07' W 123°10'1 0.6
2014-Jul-27 03:33N 49°07' W 123°11'0 0.5
2014-Jul-27 02:33N 49°07' W 123°12'0 0.4
2014-Jul-27 01:33N 49°07' W 123°11'2 1.7
2014-Jul-27 00:34N 49°06' W 123°09'4 4.0
2014-Jul-26 23:34N 49°08' W 123°15'3 2.6
2014-Jul-26 22:33N 49°07' W 123°11'1 0.6
2014-Jul-26 21:33N 49°07' W 123°12'1 0.8
2014-Jul-26 20:33N 49°07' W 123°10'1 0.5
2014-Jul-26 19:33N 49°07' W 123°10'2 1.6
2014-Jul-26 18:34N 49°07' W 123°12'2 2.2
2014-Jul-26 17:34N 49°06' W 123°09'1 1.0
2014-Jul-26 16:34N 49°07' W 123°10'  
2014-Jul-20 21:24N 49°07' W 123°11'5 5.8
2014-Jul-20 20:33N 49°06' W 123°18'8 8.4
2014-Jul-20 19:33N 49°09' W 123°30'9 9.0
2014-Jul-20 18:34N 49°12' W 123°43'8 7.8
2014-Jul-20 17:33N 49°10' W 123°55'  
Track history (hours):
 
Tides and Currents Weather Stations Pressure Air Temp Water Temp Dewpoint Dewpoint Depression Visibility Wind Speed Wind Dir Waves Ship Positions

Steveston Lifeboat

Last reported at 2014-Jul-27 06:34 UTC. Time now 2014-Jul-30 09:04 UTC.
Position N 49°07' W 123°12'.

Length 15 m.

Type: SAR. MMSI: 316012135.

Date/timePositionNaut miles runAvg speedWind from/ knotsBaromVisibWave heightAir tempDewpointWater temp
2014-Jul-27 06:34N 49°07' W 123°12'2 1.6
2014-Jul-27 05:33N 49°07' W 123°10'1 0.8
2014-Jul-27 04:33N 49°07' W 123°10'1 0.6
2014-Jul-27 03:33N 49°07' W 123°11'0 0.5
2014-Jul-27 02:33N 49°07' W 123°12'0 0.4
2014-Jul-27 01:33N 49°07' W 123°11'2 1.7
2014-Jul-27 00:34N 49°06' W 123°09'4 4.0
2014-Jul-26 23:34N 49°08' W 123°15'3 2.6
2014-Jul-26 22:33N 49°07' W 123°11'1 0.6
2014-Jul-26 21:33N 49°07' W 123°12'1 0.8
2014-Jul-26 20:33N 49°07' W 123°10'1 0.5
2014-Jul-26 19:33N 49°07' W 123°10'2 1.6
2014-Jul-26 18:34N 49°07' W 123°12'2 2.2
2014-Jul-26 17:34N 49°06' W 123°09'1 1.0
2014-Jul-26 16:34N 49°07' W 123°10'  
2014-Jul-20 21:24N 49°07' W 123°11'5 5.8
2014-Jul-20 20:33N 49°06' W 123°18'8 8.4
2014-Jul-20 19:33N 49°09' W 123°30'9 9.0
2014-Jul-20 18:34N 49°12' W 123°43'8 7.8
2014-Jul-20 17:33N 49°10' W 123°55'  

Dump ship's entire track history